sensor_id;sensor_type;location;lat;lon;timestamp;P1;durP1;ratioP1;P2;durP2;ratioP2
32760;SDS011;19126;47.472;7.850;2023-11-19T00:00:26;16.67;;;11.52;;
32760;SDS011;19126;47.472;7.850;2023-11-19T00:02:52;17.42;;;11.95;;
32760;SDS011;19126;47.472;7.850;2023-11-19T00:05:20;13.38;;;10.75;;
32760;SDS011;19126;47.472;7.850;2023-11-19T00:07:49;14.38;;;11.45;;
32760;SDS011;19126;47.472;7.850;2023-11-19T00:10:17;15.68;;;11.90;;
32760;SDS011;19126;47.472;7.850;2023-11-19T00:12:46;19.83;;;12.93;;
32760;SDS011;19126;47.472;7.850;2023-11-19T00:15:15;19.23;;;13.70;;
32760;SDS011;19126;47.472;7.850;2023-11-19T00:17:44;15.88;;;11.77;;
32760;SDS011;19126;47.472;7.850;2023-11-19T00:20:14;19.45;;;12.13;;
32760;SDS011;19126;47.472;7.850;2023-11-19T00:22:43;14.73;;;11.38;;
32760;SDS011;19126;47.472;7.850;2023-11-19T00:25:15;16.35;;;12.95;;
32760;SDS011;19126;47.472;7.850;2023-11-19T00:27:42;17.60;;;14.23;;
32760;SDS011;19126;47.472;7.850;2023-11-19T00:30:11;16.25;;;12.70;;
32760;SDS011;19126;47.472;7.850;2023-11-19T00:32:39;18.23;;;13.55;;
32760;SDS011;19126;47.472;7.850;2023-11-19T00:35:08;18.58;;;12.52;;
32760;SDS011;19126;47.472;7.850;2023-11-19T00:37:36;18.50;;;13.40;;
32760;SDS011;19126;47.472;7.850;2023-11-19T00:40:05;28.17;;;14.32;;
32760;SDS011;19126;47.472;7.850;2023-11-19T00:42:37;20.95;;;13.93;;
32760;SDS011;19126;47.472;7.850;2023-11-19T00:45:08;16.88;;;11.80;;
32760;SDS011;19126;47.472;7.850;2023-11-19T00:47:38;16.20;;;12.15;;
32760;SDS011;19126;47.472;7.850;2023-11-19T00:50:06;16.98;;;12.80;;
32760;SDS011;19126;47.472;7.850;2023-11-19T00:52:36;19.60;;;14.25;;
32760;SDS011;19126;47.472;7.850;2023-11-19T00:55:04;19.92;;;13.68;;
32760;SDS011;19126;47.472;7.850;2023-11-19T00:57:32;20.98;;;14.48;;
32760;SDS011;19126;47.472;7.850;2023-11-19T01:00:02;21.55;;;14.43;;
32760;SDS011;19126;47.472;7.850;2023-11-19T01:02:40;20.10;;;13.88;;
32760;SDS011;19126;47.472;7.850;2023-11-19T01:05:08;17.98;;;12.85;;
32760;SDS011;19126;47.472;7.850;2023-11-19T01:07:39;18.00;;;13.98;;
32760;SDS011;19126;47.472;7.850;2023-11-19T01:10:07;18.48;;;14.07;;
32760;SDS011;19126;47.472;7.850;2023-11-19T01:12:35;18.05;;;13.60;;
32760;SDS011;19126;47.472;7.850;2023-11-19T01:15:04;16.67;;;12.90;;
32760;SDS011;19126;47.472;7.850;2023-11-19T01:17:33;20.30;;;15.00;;
32760;SDS011;19126;47.472;7.850;2023-11-19T01:20:03;17.42;;;13.20;;
32760;SDS011;19126;47.472;7.850;2023-11-19T01:22:32;16.27;;;12.35;;
32760;SDS011;19126;47.472;7.850;2023-11-19T01:25:00;17.30;;;12.55;;
32760;SDS011;19126;47.472;7.850;2023-11-19T01:27:30;17.20;;;12.80;;
32760;SDS011;19126;47.472;7.850;2023-11-19T01:29:59;18.83;;;12.52;;
32760;SDS011;19126;47.472;7.850;2023-11-19T01:32:31;17.63;;;13.52;;
32760;SDS011;19126;47.472;7.850;2023-11-19T01:34:58;16.42;;;11.80;;
32760;SDS011;19126;47.472;7.850;2023-11-19T01:37:26;22.20;;;12.80;;
32760;SDS011;19126;47.472;7.850;2023-11-19T01:39:54;16.08;;;13.02;;
32760;SDS011;19126;47.472;7.850;2023-11-19T01:42:22;16.08;;;12.27;;
32760;SDS011;19126;47.472;7.850;2023-11-19T01:44:57;16.85;;;12.23;;
32760;SDS011;19126;47.472;7.850;2023-11-19T01:47:27;16.73;;;12.80;;
32760;SDS011;19126;47.472;7.850;2023-11-19T01:49:57;13.43;;;11.38;;
32760;SDS011;19126;47.472;7.850;2023-11-19T01:52:26;16.05;;;12.30;;
32760;SDS011;19126;47.472;7.850;2023-11-19T01:54:54;18.50;;;13.70;;
32760;SDS011;19126;47.472;7.850;2023-11-19T01:57:23;16.75;;;13.57;;
32760;SDS011;19126;47.472;7.850;2023-11-19T01:59:51;17.00;;;13.25;;
32760;SDS011;19126;47.472;7.850;2023-11-19T02:02:20;17.90;;;13.10;;
32760;SDS011;19126;47.472;7.850;2023-11-19T02:04:49;17.58;;;14.02;;
32760;SDS011;19126;47.472;7.850;2023-11-19T02:07:17;21.38;;;13.80;;
32760;SDS011;19126;47.472;7.850;2023-11-19T02:09:45;17.88;;;12.00;;
32760;SDS011;19126;47.472;7.850;2023-11-19T02:12:13;17.67;;;12.90;;
32760;SDS011;19126;47.472;7.850;2023-11-19T02:14:40;18.40;;;12.60;;
32760;SDS011;19126;47.472;7.850;2023-11-19T02:17:08;14.35;;;11.18;;
32760;SDS011;19126;47.472;7.850;2023-11-19T02:19:54;15.63;;;12.02;;
32760;SDS011;19126;47.472;7.850;2023-11-19T02:22:22;18.52;;;14.02;;
32760;SDS011;19126;47.472;7.850;2023-11-19T02:24:51;15.55;;;12.02;;
32760;SDS011;19126;47.472;7.850;2023-11-19T02:27:27;14.20;;;11.15;;
32760;SDS011;19126;47.472;7.850;2023-11-19T02:30:06;14.10;;;11.13;;
32760;SDS011;19126;47.472;7.850;2023-11-19T02:32:34;13.27;;;10.45;;
32760;SDS011;19126;47.472;7.850;2023-11-19T02:35:06;18.80;;;13.00;;
32760;SDS011;19126;47.472;7.850;2023-11-19T02:37:34;12.75;;;10.52;;
32760;SDS011;19126;47.472;7.850;2023-11-19T02:40:01;13.98;;;11.15;;
32760;SDS011;19126;47.472;7.850;2023-11-19T02:42:30;14.40;;;10.77;;
32760;SDS011;19126;47.472;7.850;2023-11-19T02:45:00;16.27;;;11.23;;
32760;SDS011;19126;47.472;7.850;2023-11-19T02:47:31;15.15;;;11.55;;
32760;SDS011;19126;47.472;7.850;2023-11-19T02:49:58;17.67;;;13.18;;
32760;SDS011;19126;47.472;7.850;2023-11-19T02:52:26;15.93;;;12.30;;
32760;SDS011;19126;47.472;7.850;2023-11-19T02:54:53;16.33;;;11.27;;
32760;SDS011;19126;47.472;7.850;2023-11-19T02:57:21;14.15;;;10.38;;
32760;SDS011;19126;47.472;7.850;2023-11-19T02:59:50;14.82;;;11.68;;
32760;SDS011;19126;47.472;7.850;2023-11-19T03:02:19;11.25;;;9.27;;
32760;SDS011;19126;47.472;7.850;2023-11-19T03:04:47;14.23;;;8.10;;
32760;SDS011;19126;47.472;7.850;2023-11-19T03:07:14;10.65;;;8.43;;
32760;SDS011;19126;47.472;7.850;2023-11-19T03:09:43;10.55;;;8.35;;
32760;SDS011;19126;47.472;7.850;2023-11-19T03:12:10;11.25;;;8.27;;
32760;SDS011;19126;47.472;7.850;2023-11-19T03:14:37;14.05;;;8.52;;
32760;SDS011;19126;47.472;7.850;2023-11-19T03:17:05;11.38;;;8.82;;
32760;SDS011;19126;47.472;7.850;2023-11-19T03:19:36;12.73;;;8.50;;
32760;SDS011;19126;47.472;7.850;2023-11-19T03:22:04;10.45;;;7.68;;
32760;SDS011;19126;47.472;7.850;2023-11-19T03:24:32;9.57;;;7.43;;
32760;SDS011;19126;47.472;7.850;2023-11-19T03:27:01;9.15;;;7.57;;
32760;SDS011;19126;47.472;7.850;2023-11-19T03:29:29;8.90;;;6.63;;
32760;SDS011;19126;47.472;7.850;2023-11-19T03:31:56;13.63;;;7.72;;
32760;SDS011;19126;47.472;7.850;2023-11-19T03:34:24;10.38;;;8.23;;
32760;SDS011;19126;47.472;7.850;2023-11-19T03:36:53;15.07;;;9.02;;
32760;SDS011;19126;47.472;7.850;2023-11-19T03:39:22;11.30;;;8.60;;
32760;SDS011;19126;47.472;7.850;2023-11-19T03:41:50;9.40;;;8.07;;
32760;SDS011;19126;47.472;7.850;2023-11-19T03:44:17;8.68;;;7.50;;
32760;SDS011;19126;47.472;7.850;2023-11-19T03:46:46;12.77;;;7.75;;
32760;SDS011;19126;47.472;7.850;2023-11-19T03:49:14;9.20;;;7.40;;
32760;SDS011;19126;47.472;7.850;2023-11-19T03:51:42;9.52;;;7.50;;
32760;SDS011;19126;47.472;7.850;2023-11-19T03:54:11;14.38;;;7.28;;
32760;SDS011;19126;47.472;7.850;2023-11-19T03:56:39;9.23;;;6.82;;
32760;SDS011;19126;47.472;7.850;2023-11-19T03:59:07;12.13;;;7.05;;
32760;SDS011;19126;47.472;7.850;2023-11-19T04:01:35;10.65;;;8.27;;
32760;SDS011;19126;47.472;7.850;2023-11-19T04:04:03;8.40;;;7.28;;
32760;SDS011;19126;47.472;7.850;2023-11-19T04:06:31;10.60;;;7.63;;
32760;SDS011;19126;47.472;7.850;2023-11-19T04:08:59;11.65;;;9.18;;
32760;SDS011;19126;47.472;7.850;2023-11-19T04:11:28;12.77;;;9.50;;
32760;SDS011;19126;47.472;7.850;2023-11-19T04:13:55;16.50;;;10.25;;
32760;SDS011;19126;47.472;7.850;2023-11-19T04:16:25;12.75;;;9.88;;
32760;SDS011;19126;47.472;7.850;2023-11-19T04:18:54;11.48;;;8.57;;
32760;SDS011;19126;47.472;7.850;2023-11-19T04:21:21;9.80;;;8.30;;
32760;SDS011;19126;47.472;7.850;2023-11-19T04:23:49;12.35;;;9.07;;
32760;SDS011;19126;47.472;7.850;2023-11-19T04:26:16;10.82;;;8.40;;
32760;SDS011;19126;47.472;7.850;2023-11-19T04:28:46;9.00;;;7.95;;
32760;SDS011;19126;47.472;7.850;2023-11-19T04:31:14;8.30;;;7.40;;
32760;SDS011;19126;47.472;7.850;2023-11-19T04:33:42;7.78;;;6.95;;
32760;SDS011;19126;47.472;7.850;2023-11-19T04:36:10;10.05;;;9.00;;
32760;SDS011;19126;47.472;7.850;2023-11-19T04:38:39;9.85;;;7.22;;
32760;SDS011;19126;47.472;7.850;2023-11-19T04:41:06;8.15;;;7.35;;
32760;SDS011;19126;47.472;7.850;2023-11-19T04:43:35;11.10;;;8.13;;
32760;SDS011;19126;47.472;7.850;2023-11-19T04:46:04;11.52;;;8.95;;
32760;SDS011;19126;47.472;7.850;2023-11-19T04:48:32;11.20;;;8.27;;
32760;SDS011;19126;47.472;7.850;2023-11-19T04:51:00;10.77;;;7.45;;
32760;SDS011;19126;47.472;7.850;2023-11-19T04:53:28;8.98;;;7.55;;
32760;SDS011;19126;47.472;7.850;2023-11-19T04:55:55;11.18;;;8.23;;
32760;SDS011;19126;47.472;7.850;2023-11-19T04:58:23;9.02;;;7.40;;
32760;SDS011;19126;47.472;7.850;2023-11-19T05:00:51;10.20;;;8.52;;
32760;SDS011;19126;47.472;7.850;2023-11-19T05:03:20;7.82;;;7.05;;
32760;SDS011;19126;47.472;7.850;2023-11-19T05:05:48;7.30;;;6.15;;
32760;SDS011;19126;47.472;7.850;2023-11-19T05:08:15;7.63;;;6.80;;
32760;SDS011;19126;47.472;7.850;2023-11-19T05:10:43;8.63;;;7.05;;
32760;SDS011;19126;47.472;7.850;2023-11-19T05:13:10;7.60;;;6.25;;
32760;SDS011;19126;47.472;7.850;2023-11-19T05:15:38;13.65;;;7.45;;
32760;SDS011;19126;47.472;7.850;2023-11-19T05:18:06;9.77;;;6.97;;
32760;SDS011;19126;47.472;7.850;2023-11-19T05:20:35;10.60;;;7.22;;
32760;SDS011;19126;47.472;7.850;2023-11-19T05:23:03;7.30;;;5.85;;
32760;SDS011;19126;47.472;7.850;2023-11-19T05:25:31;7.35;;;5.78;;
32760;SDS011;19126;47.472;7.850;2023-11-19T05:27:58;8.75;;;6.55;;
32760;SDS011;19126;47.472;7.850;2023-11-19T05:30:26;6.57;;;5.65;;
32760;SDS011;19126;47.472;7.850;2023-11-19T05:32:54;7.13;;;5.72;;
32760;SDS011;19126;47.472;7.850;2023-11-19T05:35:21;8.30;;;5.82;;
32760;SDS011;19126;47.472;7.850;2023-11-19T05:37:50;8.55;;;4.93;;
32760;SDS011;19126;47.472;7.850;2023-11-19T05:40:18;9.50;;;5.45;;
32760;SDS011;19126;47.472;7.850;2023-11-19T05:42:46;8.45;;;6.85;;
32760;SDS011;19126;47.472;7.850;2023-11-19T05:45:13;8.48;;;6.57;;
32760;SDS011;19126;47.472;7.850;2023-11-19T05:47:41;9.18;;;6.32;;
32760;SDS011;19126;47.472;7.850;2023-11-19T05:50:09;8.30;;;6.40;;
32760;SDS011;19126;47.472;7.850;2023-11-19T05:52:37;8.45;;;5.97;;
32760;SDS011;19126;47.472;7.850;2023-11-19T05:55:06;9.23;;;7.30;;
32760;SDS011;19126;47.472;7.850;2023-11-19T05:57:35;8.90;;;7.60;;
32760;SDS011;19126;47.472;7.850;2023-11-19T06:00:03;12.88;;;7.55;;
32760;SDS011;19126;47.472;7.850;2023-11-19T06:02:33;9.65;;;7.47;;
32760;SDS011;19126;47.472;7.850;2023-11-19T06:05:02;11.32;;;7.43;;
32760;SDS011;19126;47.472;7.850;2023-11-19T06:07:31;10.05;;;6.22;;
32760;SDS011;19126;47.472;7.850;2023-11-19T06:10:00;10.80;;;6.68;;
32760;SDS011;19126;47.472;7.850;2023-11-19T06:12:29;7.05;;;6.05;;
32760;SDS011;19126;47.472;7.850;2023-11-19T06:14:59;8.88;;;6.03;;
32760;SDS011;19126;47.472;7.850;2023-11-19T06:17:28;6.97;;;6.18;;
32760;SDS011;19126;47.472;7.850;2023-11-19T06:19:55;7.05;;;5.75;;
32760;SDS011;19126;47.472;7.850;2023-11-19T06:22:23;9.98;;;6.32;;
32760;SDS011;19126;47.472;7.850;2023-11-19T06:24:50;8.27;;;5.93;;
32760;SDS011;19126;47.472;7.850;2023-11-19T06:27:18;5.40;;;4.75;;
32760;SDS011;19126;47.472;7.850;2023-11-19T06:29:47;7.72;;;4.75;;
32760;SDS011;19126;47.472;7.850;2023-11-19T06:32:15;7.45;;;5.20;;
32760;SDS011;19126;47.472;7.850;2023-11-19T06:34:43;5.57;;;4.75;;
32760;SDS011;19126;47.472;7.850;2023-11-19T06:37:10;4.78;;;4.35;;
32760;SDS011;19126;47.472;7.850;2023-11-19T06:39:38;5.10;;;3.28;;
32760;SDS011;19126;47.472;7.850;2023-11-19T06:42:06;4.68;;;2.42;;
32760;SDS011;19126;47.472;7.850;2023-11-19T06:44:34;4.22;;;2.95;;
32760;SDS011;19126;47.472;7.850;2023-11-19T06:47:03;7.15;;;3.75;;
32760;SDS011;19126;47.472;7.850;2023-11-19T06:49:31;8.27;;;4.25;;
32760;SDS011;19126;47.472;7.850;2023-11-19T06:51:59;7.25;;;3.95;;
32760;SDS011;19126;47.472;7.850;2023-11-19T06:54:26;7.03;;;5.32;;
32760;SDS011;19126;47.472;7.850;2023-11-19T06:56:54;7.88;;;6.38;;
32760;SDS011;19126;47.472;7.850;2023-11-19T06:59:22;7.95;;;6.47;;
32760;SDS011;19126;47.472;7.850;2023-11-19T07:01:50;10.55;;;6.68;;
32760;SDS011;19126;47.472;7.850;2023-11-19T07:04:19;11.77;;;7.47;;
32760;SDS011;19126;47.472;7.850;2023-11-19T07:06:47;8.43;;;6.43;;
32760;SDS011;19126;47.472;7.850;2023-11-19T07:09:15;8.23;;;5.70;;
32760;SDS011;19126;47.472;7.850;2023-11-19T07:11:43;8.98;;;5.72;;
32760;SDS011;19126;47.472;7.850;2023-11-19T07:14:11;7.10;;;5.75;;
32760;SDS011;19126;47.472;7.850;2023-11-19T07:16:39;6.93;;;5.03;;
32760;SDS011;19126;47.472;7.850;2023-11-19T07:19:06;6.05;;;4.82;;
32760;SDS011;19126;47.472;7.850;2023-11-19T07:21:35;4.70;;;4.25;;
32760;SDS011;19126;47.472;7.850;2023-11-19T07:24:05;6.90;;;5.07;;
32760;SDS011;19126;47.472;7.850;2023-11-19T07:26:33;6.40;;;4.63;;
32760;SDS011;19126;47.472;7.850;2023-11-19T07:29:00;3.83;;;2.72;;
32760;SDS011;19126;47.472;7.850;2023-11-19T07:31:28;4.32;;;2.00;;
32760;SDS011;19126;47.472;7.850;2023-11-19T07:33:55;6.25;;;2.10;;
32760;SDS011;19126;47.472;7.850;2023-11-19T07:36:23;3.85;;;2.45;;
32760;SDS011;19126;47.472;7.850;2023-11-19T07:38:52;4.45;;;3.17;;
32760;SDS011;19126;47.472;7.850;2023-11-19T07:41:22;2.72;;;2.53;;
32760;SDS011;19126;47.472;7.850;2023-11-19T07:43:50;2.47;;;1.52;;
32760;SDS011;19126;47.472;7.850;2023-11-19T07:46:18;4.63;;;1.15;;
32760;SDS011;19126;47.472;7.850;2023-11-19T07:48:46;2.60;;;2.40;;
32760;SDS011;19126;47.472;7.850;2023-11-19T07:51:14;5.22;;;3.80;;
32760;SDS011;19126;47.472;7.850;2023-11-19T07:53:41;10.93;;;5.28;;
32760;SDS011;19126;47.472;7.850;2023-11-19T07:56:11;9.32;;;6.93;;
32760;SDS011;19126;47.472;7.850;2023-11-19T07:58:39;11.07;;;7.88;;
32760;SDS011;19126;47.472;7.850;2023-11-19T08:01:07;13.43;;;8.88;;
32760;SDS011;19126;47.472;7.850;2023-11-19T08:03:35;16.13;;;9.07;;
32760;SDS011;19126;47.472;7.850;2023-11-19T08:06:03;19.15;;;11.60;;
32760;SDS011;19126;47.472;7.850;2023-11-19T08:08:32;10.68;;;6.65;;
32760;SDS011;19126;47.472;7.850;2023-11-19T08:11:00;5.72;;;4.07;;
32760;SDS011;19126;47.472;7.850;2023-11-19T08:13:29;5.35;;;4.25;;
32760;SDS011;19126;47.472;7.850;2023-11-19T08:15:57;7.10;;;5.03;;
32760;SDS011;19126;47.472;7.850;2023-11-19T08:18:25;4.32;;;3.83;;
32760;SDS011;19126;47.472;7.850;2023-11-19T08:20:53;5.07;;;4.13;;
32760;SDS011;19126;47.472;7.850;2023-11-19T08:23:21;4.97;;;3.63;;
32760;SDS011;19126;47.472;7.850;2023-11-19T08:25:50;4.47;;;3.22;;
32760;SDS011;19126;47.472;7.850;2023-11-19T08:28:18;4.78;;;4.07;;
32760;SDS011;19126;47.472;7.850;2023-11-19T08:30:47;6.38;;;4.07;;
32760;SDS011;19126;47.472;7.850;2023-11-19T08:33:15;5.47;;;3.45;;
32760;SDS011;19126;47.472;7.850;2023-11-19T08:35:43;29.08;;;19.27;;
32760;SDS011;19126;47.472;7.850;2023-11-19T08:38:12;26.15;;;17.13;;
32760;SDS011;19126;47.472;7.850;2023-11-19T08:40:40;22.17;;;16.77;;
32760;SDS011;19126;47.472;7.850;2023-11-19T08:43:08;21.20;;;15.32;;
32760;SDS011;19126;47.472;7.850;2023-11-19T08:45:35;17.67;;;14.98;;
32760;SDS011;19126;47.472;7.850;2023-11-19T08:48:05;17.88;;;12.98;;
32760;SDS011;19126;47.472;7.850;2023-11-19T08:50:32;15.15;;;12.25;;
32760;SDS011;19126;47.472;7.850;2023-11-19T08:53:00;15.73;;;10.73;;
32760;SDS011;19126;47.472;7.850;2023-11-19T08:55:27;9.05;;;7.72;;
32760;SDS011;19126;47.472;7.850;2023-11-19T08:57:54;9.80;;;6.60;;
32760;SDS011;19126;47.472;7.850;2023-11-19T09:00:23;9.25;;;6.60;;
32760;SDS011;19126;47.472;7.850;2023-11-19T09:02:50;10.93;;;8.02;;
32760;SDS011;19126;47.472;7.850;2023-11-19T09:05:19;10.07;;;8.68;;
32760;SDS011;19126;47.472;7.850;2023-11-19T09:07:46;17.15;;;12.45;;
32760;SDS011;19126;47.472;7.850;2023-11-19T09:10:14;18.70;;;12.27;;
32760;SDS011;19126;47.472;7.850;2023-11-19T09:12:42;15.35;;;10.68;;
32760;SDS011;19126;47.472;7.850;2023-11-19T09:15:10;15.77;;;8.27;;
32760;SDS011;19126;47.472;7.850;2023-11-19T09:17:38;8.40;;;6.80;;
32760;SDS011;19126;47.472;7.850;2023-11-19T09:20:06;8.95;;;5.45;;
32760;SDS011;19126;47.472;7.850;2023-11-19T09:22:38;8.23;;;3.88;;
32760;SDS011;19126;47.472;7.850;2023-11-19T09:25:06;6.60;;;3.15;;
32760;SDS011;19126;47.472;7.850;2023-11-19T09:27:34;10.18;;;5.30;;
32760;SDS011;19126;47.472;7.850;2023-11-19T09:30:02;5.30;;;4.30;;
32760;SDS011;19126;47.472;7.850;2023-11-19T09:32:30;4.55;;;2.38;;
32760;SDS011;19126;47.472;7.850;2023-11-19T09:34:57;3.92;;;2.75;;
32760;SDS011;19126;47.472;7.850;2023-11-19T09:37:25;8.70;;;4.20;;
32760;SDS011;19126;47.472;7.850;2023-11-19T09:39:54;4.05;;;3.45;;
32760;SDS011;19126;47.472;7.850;2023-11-19T09:42:23;3.63;;;2.90;;
32760;SDS011;19126;47.472;7.850;2023-11-19T09:44:52;5.22;;;3.47;;
32760;SDS011;19126;47.472;7.850;2023-11-19T09:47:22;7.32;;;3.42;;
32760;SDS011;19126;47.472;7.850;2023-11-19T09:49:52;4.60;;;3.08;;
32760;SDS011;19126;47.472;7.850;2023-11-19T09:52:20;3.10;;;2.60;;
32760;SDS011;19126;47.472;7.850;2023-11-19T09:54:49;2.17;;;1.90;;
32760;SDS011;19126;47.472;7.850;2023-11-19T09:57:18;2.45;;;1.95;;
32760;SDS011;19126;47.472;7.850;2023-11-19T09:59:46;2.78;;;2.40;;
32760;SDS011;19126;47.472;7.850;2023-11-19T10:02:16;1.80;;;1.70;;
32760;SDS011;19126;47.472;7.850;2023-11-19T10:04:44;4.55;;;1.65;;
32760;SDS011;19126;47.472;7.850;2023-11-19T10:07:14;1.58;;;1.35;;
32760;SDS011;19126;47.472;7.850;2023-11-19T10:09:42;7.55;;;2.13;;
32760;SDS011;19126;47.472;7.850;2023-11-19T10:12:11;2.47;;;2.22;;
32760;SDS011;19126;47.472;7.850;2023-11-19T10:14:40;2.30;;;2.10;;
32760;SDS011;19126;47.472;7.850;2023-11-19T10:17:10;4.03;;;2.13;;
32760;SDS011;19126;47.472;7.850;2023-11-19T10:19:39;2.53;;;1.83;;
32760;SDS011;19126;47.472;7.850;2023-11-19T10:22:07;5.15;;;1.88;;
32760;SDS011;19126;47.472;7.850;2023-11-19T10:24:35;2.85;;;2.00;;
32760;SDS011;19126;47.472;7.850;2023-11-19T10:27:04;4.68;;;2.22;;
32760;SDS011;19126;47.472;7.850;2023-11-19T10:29:35;5.25;;;2.22;;
32760;SDS011;19126;47.472;7.850;2023-11-19T10:32:05;8.32;;;2.15;;
32760;SDS011;19126;47.472;7.850;2023-11-19T10:34:33;4.13;;;3.13;;
32760;SDS011;19126;47.472;7.850;2023-11-19T10:37:02;3.92;;;2.78;;
32760;SDS011;19126;47.472;7.850;2023-11-19T10:39:33;3.72;;;2.80;;
32760;SDS011;19126;47.472;7.850;2023-11-19T10:42:20;2.90;;;2.35;;
32760;SDS011;19126;47.472;7.850;2023-11-19T10:44:47;2.53;;;1.73;;
32760;SDS011;19126;47.472;7.850;2023-11-19T10:47:18;2.30;;;1.98;;
32760;SDS011;19126;47.472;7.850;2023-11-19T10:49:47;2.55;;;1.60;;
32760;SDS011;19126;47.472;7.850;2023-11-19T10:52:16;3.22;;;2.08;;
32760;SDS011;19126;47.472;7.850;2023-11-19T10:54:47;2.60;;;1.92;;
32760;SDS011;19126;47.472;7.850;2023-11-19T10:57:19;2.22;;;1.52;;
32760;SDS011;19126;47.472;7.850;2023-11-19T10:59:49;4.40;;;1.38;;
32760;SDS011;19126;47.472;7.850;2023-11-19T11:02:26;1.50;;;1.40;;
32760;SDS011;19126;47.472;7.850;2023-11-19T11:04:56;1.85;;;1.20;;
32760;SDS011;19126;47.472;7.850;2023-11-19T11:07:24;2.83;;;0.98;;
32760;SDS011;19126;47.472;7.850;2023-11-19T11:09:52;2.00;;;1.00;;
32760;SDS011;19126;47.472;7.850;2023-11-19T11:12:34;1.85;;;1.23;;
32760;SDS011;19126;47.472;7.850;2023-11-19T11:15:05;3.30;;;1.20;;
32760;SDS011;19126;47.472;7.850;2023-11-19T11:17:36;1.40;;;1.20;;
32760;SDS011;19126;47.472;7.850;2023-11-19T11:20:08;0.98;;;0.88;;
32760;SDS011;19126;47.472;7.850;2023-11-19T11:22:39;1.77;;;0.80;;
32760;SDS011;19126;47.472;7.850;2023-11-19T11:25:23;1.38;;;0.90;;
32760;SDS011;19126;47.472;7.850;2023-11-19T11:28:09;4.50;;;1.87;;
32760;SDS011;19126;47.472;7.850;2023-11-19T11:30:52;3.70;;;1.63;;
32760;SDS011;19126;47.472;7.850;2023-11-19T11:37:02;1.35;;;1.05;;
32760;SDS011;19126;47.472;7.850;2023-11-19T11:39:43;1.48;;;1.05;;
32760;SDS011;19126;47.472;7.850;2023-11-19T11:45:01;1.33;;;0.80;;
32760;SDS011;19126;47.472;7.850;2023-11-19T11:50:54;2.13;;;1.00;;
32760;SDS011;19126;47.472;7.850;2023-11-19T11:53:25;1.38;;;0.80;;
32760;SDS011;19126;47.472;7.850;2023-11-19T11:55:54;1.13;;;0.70;;
32760;SDS011;19126;47.472;7.850;2023-11-19T11:58:27;0.77;;;0.77;;
32760;SDS011;19126;47.472;7.850;2023-11-19T12:01:04;3.50;;;0.90;;
32760;SDS011;19126;47.472;7.850;2023-11-19T12:03:32;5.32;;;1.42;;
32760;SDS011;19126;47.472;7.850;2023-11-19T12:06:01;3.90;;;1.13;;
32760;SDS011;19126;47.472;7.850;2023-11-19T12:08:29;2.53;;;0.90;;
32760;SDS011;19126;47.472;7.850;2023-11-19T12:10:57;1.67;;;1.42;;
32760;SDS011;19126;47.472;7.850;2023-11-19T12:16:12;2.22;;;1.17;;
32760;SDS011;19126;47.472;7.850;2023-11-19T12:18:40;3.28;;;1.50;;
32760;SDS011;19126;47.472;7.850;2023-11-19T12:21:09;3.08;;;1.92;;
32760;SDS011;19126;47.472;7.850;2023-11-19T12:23:43;11.93;;;6.50;;
32760;SDS011;19126;47.472;7.850;2023-11-19T12:29:00;1.75;;;1.42;;
32760;SDS011;19126;47.472;7.850;2023-11-19T12:31:31;2.00;;;0.75;;
32760;SDS011;19126;47.472;7.850;2023-11-19T12:34:08;5.60;;;0.80;;
32760;SDS011;19126;47.472;7.850;2023-11-19T12:36:40;0.70;;;0.70;;
32760;SDS011;19126;47.472;7.850;2023-11-19T12:39:08;3.83;;;0.52;;
32760;SDS011;19126;47.472;7.850;2023-11-19T12:41:48;0.35;;;0.30;;
32760;SDS011;19126;47.472;7.850;2023-11-19T12:44:19;2.75;;;0.50;;
32760;SDS011;19126;47.472;7.850;2023-11-19T12:46:58;1.25;;;0.50;;
32760;SDS011;19126;47.472;7.850;2023-11-19T12:49:27;1.08;;;0.43;;
32760;SDS011;19126;47.472;7.850;2023-11-19T12:51:56;0.47;;;0.40;;
32760;SDS011;19126;47.472;7.850;2023-11-19T12:54:34;0.85;;;0.60;;
32760;SDS011;19126;47.472;7.850;2023-11-19T12:57:02;0.43;;;0.32;;
32760;SDS011;19126;47.472;7.850;2023-11-19T12:59:31;1.05;;;0.60;;
32760;SDS011;19126;47.472;7.850;2023-11-19T13:01:58;1.08;;;0.50;;
32760;SDS011;19126;47.472;7.850;2023-11-19T13:04:27;2.95;;;0.38;;
32760;SDS011;19126;47.472;7.850;2023-11-19T13:06:58;0.30;;;0.30;;
32760;SDS011;19126;47.472;7.850;2023-11-19T13:09:26;0.40;;;0.40;;
32760;SDS011;19126;47.472;7.850;2023-11-19T13:11:55;0.63;;;0.35;;
32760;SDS011;19126;47.472;7.850;2023-11-19T13:14:24;0.77;;;0.40;;
32760;SDS011;19126;47.472;7.850;2023-11-19T13:17:03;1.80;;;0.70;;
32760;SDS011;19126;47.472;7.850;2023-11-19T13:19:31;0.47;;;0.47;;
32760;SDS011;19126;47.472;7.850;2023-11-19T13:22:01;0.40;;;0.40;;
32760;SDS011;19126;47.472;7.850;2023-11-19T13:24:29;3.97;;;0.52;;
32760;SDS011;19126;47.472;7.850;2023-11-19T13:26:56;1.98;;;0.52;;
32760;SDS011;19126;47.472;7.850;2023-11-19T13:29:23;1.40;;;0.65;;
32760;SDS011;19126;47.472;7.850;2023-11-19T13:31:51;3.10;;;0.40;;
32760;SDS011;19126;47.472;7.850;2023-11-19T13:34:18;0.95;;;0.50;;
32760;SDS011;19126;47.472;7.850;2023-11-19T13:36:46;3.38;;;1.08;;
32760;SDS011;19126;47.472;7.850;2023-11-19T13:39:15;6.03;;;0.98;;
32760;SDS011;19126;47.472;7.850;2023-11-19T13:41:47;1.58;;;0.50;;
32760;SDS011;19126;47.472;7.850;2023-11-19T13:44:15;1.52;;;0.77;;
32760;SDS011;19126;47.472;7.850;2023-11-19T13:46:44;3.83;;;0.75;;
32760;SDS011;19126;47.472;7.850;2023-11-19T13:49:12;1.30;;;0.63;;
32760;SDS011;19126;47.472;7.850;2023-11-19T13:51:40;1.75;;;0.68;;
32760;SDS011;19126;47.472;7.850;2023-11-19T13:54:08;3.53;;;0.80;;
32760;SDS011;19126;47.472;7.850;2023-11-19T13:56:36;5.75;;;1.10;;
32760;SDS011;19126;47.472;7.850;2023-11-19T13:59:04;1.15;;;0.70;;
32760;SDS011;19126;47.472;7.850;2023-11-19T14:01:33;2.33;;;1.10;;
32760;SDS011;19126;47.472;7.850;2023-11-19T14:04:01;0.73;;;0.52;;
32760;SDS011;19126;47.472;7.850;2023-11-19T14:06:28;1.58;;;0.70;;
32760;SDS011;19126;47.472;7.850;2023-11-19T14:08:56;1.02;;;0.52;;
32760;SDS011;19126;47.472;7.850;2023-11-19T14:11:23;1.15;;;0.50;;
32760;SDS011;19126;47.472;7.850;2023-11-19T14:13:52;2.08;;;0.80;;
32760;SDS011;19126;47.472;7.850;2023-11-19T14:16:19;4.70;;;0.80;;
32760;SDS011;19126;47.472;7.850;2023-11-19T14:18:47;5.47;;;0.80;;
32760;SDS011;19126;47.472;7.850;2023-11-19T14:21:15;2.15;;;0.70;;
32760;SDS011;19126;47.472;7.850;2023-11-19T14:23:42;3.85;;;1.00;;
32760;SDS011;19126;47.472;7.850;2023-11-19T14:26:09;3.17;;;1.52;;
32760;SDS011;19126;47.472;7.850;2023-11-19T14:28:37;2.33;;;0.90;;
32760;SDS011;19126;47.472;7.850;2023-11-19T14:31:06;4.32;;;0.70;;
32760;SDS011;19126;47.472;7.850;2023-11-19T14:33:34;7.88;;;1.02;;
32760;SDS011;19126;47.472;7.850;2023-11-19T14:36:03;2.70;;;2.33;;
32760;SDS011;19126;47.472;7.850;2023-11-19T14:38:32;2.35;;;1.10;;
32760;SDS011;19126;47.472;7.850;2023-11-19T14:40:59;4.00;;;1.05;;
32760;SDS011;19126;47.472;7.850;2023-11-19T14:43:27;2.28;;;1.08;;
32760;SDS011;19126;47.472;7.850;2023-11-19T14:45:54;4.05;;;1.80;;
32760;SDS011;19126;47.472;7.850;2023-11-19T14:48:23;2.35;;;1.30;;
32760;SDS011;19126;47.472;7.850;2023-11-19T14:50:51;2.70;;;0.68;;
32760;SDS011;19126;47.472;7.850;2023-11-19T14:53:18;1.60;;;0.80;;
32760;SDS011;19126;47.472;7.850;2023-11-19T14:56:04;2.10;;;0.90;;
32760;SDS011;19126;47.472;7.850;2023-11-19T14:58:37;6.15;;;1.67;;
32760;SDS011;19126;47.472;7.850;2023-11-19T15:01:05;1.08;;;0.98;;
32760;SDS011;19126;47.472;7.850;2023-11-19T15:03:38;4.32;;;0.68;;
32760;SDS011;19126;47.472;7.850;2023-11-19T15:06:06;4.30;;;1.15;;